sensor_id;sensor_type;location;lat;lon;timestamp;pressure;altitude;pressure_sealevel;temperature;humidity
48027;BME280;50714;49.208;5.364;2022-08-19T00:06:02;99245.25;;;20.99;57.37
48027;BME280;50714;49.208;5.364;2022-08-19T00:16:03;99239.75;;;20.84;57.29
48027;BME280;50714;49.208;5.364;2022-08-19T00:26:06;99251.56;;;20.69;57.47
48027;BME280;50714;49.208;5.364;2022-08-19T00:36:08;99258.97;;;20.59;57.82
48027;BME280;50714;49.208;5.364;2022-08-19T00:46:09;99256.50;;;20.42;58.31
48027;BME280;50714;49.208;5.364;2022-08-19T00:56:10;99244.41;;;20.33;58.20
48027;BME280;50714;49.208;5.364;2022-08-19T01:06:10;99233.72;;;20.31;58.23
48027;BME280;50714;49.208;5.364;2022-08-19T01:16:11;99236.19;;;20.23;58.60
48027;BME280;50714;49.208;5.364;2022-08-19T01:26:16;99219.19;;;20.10;58.71
48027;BME280;50714;49.208;5.364;2022-08-19T01:36:32;99230.41;;;20.04;59.35
48027;BME280;50714;49.208;5.364;2022-08-19T01:46:33;99235.56;;;19.75;58.29
48027;BME280;50714;49.208;5.364;2022-08-19T01:56:34;99240.19;;;19.69;59.27
48027;BME280;50714;49.208;5.364;2022-08-19T02:06:34;99228.06;;;19.50;59.17
48027;BME280;50714;49.208;5.364;2022-08-19T02:16:36;99235.63;;;19.38;59.68
48027;BME280;50714;49.208;5.364;2022-08-19T02:26:37;99253.53;;;19.51;59.86
48027;BME280;50714;49.208;5.364;2022-08-19T02:36:37;99254.09;;;19.53;60.30
48027;BME280;50714;49.208;5.364;2022-08-19T02:46:37;99263.84;;;19.38;60.68
48027;BME280;50714;49.208;5.364;2022-08-19T02:56:40;99266.56;;;19.38;60.30
48027;BME280;50714;49.208;5.364;2022-08-19T03:06:43;99264.91;;;19.37;60.77
48027;BME280;50714;49.208;5.364;2022-08-19T03:16:50;99263.00;;;19.33;61.74
48027;BME280;50714;49.208;5.364;2022-08-19T03:26:52;99270.84;;;19.19;63.20
48027;BME280;50714;49.208;5.364;2022-08-19T03:36:57;99281.16;;;19.02;60.66
48027;BME280;50714;49.208;5.364;2022-08-19T03:46:59;99279.19;;;18.97;60.78
48027;BME280;50714;49.208;5.364;2022-08-19T03:56:59;99278.59;;;18.90;61.18
48027;BME280;50714;49.208;5.364;2022-08-19T04:07:00;99291.06;;;18.76;61.54
48027;BME280;50714;49.208;5.364;2022-08-19T04:17:03;99285.31;;;18.72;61.68
48027;BME280;50714;49.208;5.364;2022-08-19T04:27:05;99291.22;;;18.59;62.34
48027;BME280;50714;49.208;5.364;2022-08-19T04:37:06;99289.63;;;18.63;62.09
48027;BME280;50714;49.208;5.364;2022-08-19T04:47:12;99314.25;;;18.68;61.95
48027;BME280;50714;49.208;5.364;2022-08-19T04:57:13;99318.16;;;18.78;62.57
48027;BME280;50714;49.208;5.364;2022-08-19T05:07:13;99320.94;;;18.83;62.29
48027;BME280;50714;49.208;5.364;2022-08-19T05:17:14;99322.03;;;18.82;62.37
48027;BME280;50714;49.208;5.364;2022-08-19T05:27:14;99341.47;;;18.85;62.93
48027;BME280;50714;49.208;5.364;2022-08-19T05:37:15;99338.84;;;19.00;62.89
48027;BME280;50714;49.208;5.364;2022-08-19T05:47:16;99342.84;;;19.25;63.65
48027;BME280;50714;49.208;5.364;2022-08-19T05:57:19;99353.59;;;19.36;64.15
48027;BME280;50714;49.208;5.364;2022-08-19T06:07:19;99359.66;;;19.43;65.00
48027;BME280;50714;49.208;5.364;2022-08-19T06:17:19;99351.31;;;19.65;65.56
48027;BME280;50714;49.208;5.364;2022-08-19T06:27:21;99363.16;;;19.76;65.64
48027;BME280;50714;49.208;5.364;2022-08-19T06:37:22;99380.69;;;19.75;66.69
48027;BME280;50714;49.208;5.364;2022-08-19T06:47:22;99385.63;;;19.78;66.61
48027;BME280;50714;49.208;5.364;2022-08-19T06:57:24;99389.78;;;19.91;67.26
48027;BME280;50714;49.208;5.364;2022-08-19T07:07:25;99401.13;;;20.15;67.01
48027;BME280;50714;49.208;5.364;2022-08-19T07:17:25;99416.53;;;20.31;66.68
48027;BME280;50714;49.208;5.364;2022-08-19T07:27:26;99418.16;;;20.32;66.62
48027;BME280;50714;49.208;5.364;2022-08-19T07:37:27;99429.19;;;20.42;66.27
48027;BME280;50714;49.208;5.364;2022-08-19T07:47:28;99450.91;;;20.59;66.41
48027;BME280;50714;49.208;5.364;2022-08-19T07:57:30;99442.44;;;20.70;66.34
48027;BME280;50714;49.208;5.364;2022-08-19T08:07:30;99451.28;;;20.93;65.77
48027;BME280;50714;49.208;5.364;2022-08-19T08:17:49;99456.50;;;21.20;65.24
48027;BME280;50714;49.208;5.364;2022-08-19T08:27:50;99467.53;;;21.45;64.71
48027;BME280;50714;49.208;5.364;2022-08-19T08:37:53;99462.84;;;21.51;63.88
48027;BME280;50714;49.208;5.364;2022-08-19T08:47:56;99475.22;;;21.38;63.82
48027;BME280;50714;49.208;5.364;2022-08-19T08:58:04;99467.22;;;21.52;63.80
48027;BME280;50714;49.208;5.364;2022-08-19T09:08:17;99465.03;;;21.69;63.93
48027;BME280;50714;49.208;5.364;2022-08-19T09:18:23;99465.25;;;22.13;63.20
48027;BME280;50714;49.208;5.364;2022-08-19T09:28:23;99480.47;;;22.50;62.23
48027;BME280;50714;49.208;5.364;2022-08-19T09:38:24;99488.84;;;22.89;61.52
48027;BME280;50714;49.208;5.364;2022-08-19T09:48:24;99498.19;;;26.11;59.74
48027;BME280;50714;49.208;5.364;2022-08-19T09:58:24;99468.00;;;30.63;53.90
48027;BME280;50714;49.208;5.364;2022-08-19T10:08:33;99473.34;;;33.70;48.62
48027;BME280;50714;49.208;5.364;2022-08-19T10:18:35;99460.19;;;35.16;44.19
48027;BME280;50714;49.208;5.364;2022-08-19T10:28:36;99466.09;;;35.49;43.16
48027;BME280;50714;49.208;5.364;2022-08-19T10:38:37;99465.22;;;34.25;43.12
48027;BME280;50714;49.208;5.364;2022-08-19T10:48:37;99456.16;;;32.39;41.23
48027;BME280;50714;49.208;5.364;2022-08-19T10:58:38;99443.91;;;30.88;41.86
48027;BME280;50714;49.208;5.364;2022-08-19T11:08:38;99443.38;;;29.97;42.39
48027;BME280;50714;49.208;5.364;2022-08-19T11:18:48;99432.88;;;29.47;42.33
48027;BME280;50714;49.208;5.364;2022-08-19T11:28:50;99433.16;;;29.37;42.51
48027;BME280;50714;49.208;5.364;2022-08-19T11:38:53;99437.31;;;29.95;42.86
48027;BME280;50714;49.208;5.364;2022-08-19T11:48:54;99416.78;;;30.17;41.89
48027;BME280;50714;49.208;5.364;2022-08-19T11:58:55;99421.91;;;30.06;42.72
48027;BME280;50714;49.208;5.364;2022-08-19T12:08:59;99424.81;;;29.63;43.03
48027;BME280;50714;49.208;5.364;2022-08-19T12:19:01;99432.19;;;29.33;43.58
48027;BME280;50714;49.208;5.364;2022-08-19T12:29:04;99437.78;;;28.81;44.22
48027;BME280;50714;49.208;5.364;2022-08-19T12:39:04;99430.84;;;28.62;44.13
48027;BME280;50714;49.208;5.364;2022-08-19T12:49:05;99430.00;;;28.44;44.75
48027;BME280;50714;49.208;5.364;2022-08-19T12:59:06;99431.34;;;28.15;45.50
48027;BME280;50714;49.208;5.364;2022-08-19T13:09:08;99438.53;;;27.77;45.94
48027;BME280;50714;49.208;5.364;2022-08-19T13:19:09;99447.66;;;27.55;46.15
48027;BME280;50714;49.208;5.364;2022-08-19T13:29:10;99444.22;;;27.27;46.82
48027;BME280;50714;49.208;5.364;2022-08-19T13:39:31;99448.00;;;27.09;47.60
48027;BME280;50714;49.208;5.364;2022-08-19T13:49:34;99448.22;;;26.99;47.71
48027;BME280;50714;49.208;5.364;2022-08-19T13:59:36;99437.13;;;26.99;48.03
48027;BME280;50714;49.208;5.364;2022-08-19T14:09:36;99435.13;;;26.77;48.02
48027;BME280;50714;49.208;5.364;2022-08-19T14:19:36;99431.13;;;26.69;48.41
48027;BME280;50714;49.208;5.364;2022-08-19T14:29:37;99431.66;;;26.71;48.38
48027;BME280;50714;49.208;5.364;2022-08-19T14:39:37;99423.50;;;26.53;48.69
48027;BME280;50714;49.208;5.364;2022-08-19T14:49:40;99412.84;;;26.46;49.01
48027;BME280;50714;49.208;5.364;2022-08-19T14:59:41;99416.81;;;25.99;49.62
48027;BME280;50714;49.208;5.364;2022-08-19T15:09:42;99415.78;;;25.81;50.40
48027;BME280;50714;49.208;5.364;2022-08-19T15:19:43;99413.56;;;25.83;50.11
48027;BME280;50714;49.208;5.364;2022-08-19T15:29:43;99406.16;;;25.78;50.45
48027;BME280;50714;49.208;5.364;2022-08-19T15:39:45;99417.03;;;26.02;49.92
48027;BME280;50714;49.208;5.364;2022-08-19T15:49:46;99420.31;;;26.04;49.68
48027;BME280;50714;49.208;5.364;2022-08-19T15:59:46;99426.75;;;26.00;49.87
48027;BME280;50714;49.208;5.364;2022-08-19T16:10:05;99421.66;;;25.93;50.14
48027;BME280;50714;49.208;5.364;2022-08-19T16:20:07;99419.59;;;25.85;50.20
48027;BME280;50714;49.208;5.364;2022-08-19T16:30:09;99419.38;;;25.81;50.45
48027;BME280;50714;49.208;5.364;2022-08-19T16:40:10;99416.00;;;25.71;50.56
48027;BME280;50714;49.208;5.364;2022-08-19T16:50:11;99414.16;;;25.66;50.57
48027;BME280;50714;49.208;5.364;2022-08-19T17:00:12;99420.34;;;25.58;50.88
48027;BME280;50714;49.208;5.364;2022-08-19T17:10:13;99419.31;;;25.54;51.23
48027;BME280;50714;49.208;5.364;2022-08-19T17:20:14;99415.19;;;25.52;51.39
48027;BME280;50714;49.208;5.364;2022-08-19T17:30:14;99410.31;;;25.48;51.50
48027;BME280;50714;49.208;5.364;2022-08-19T17:40:15;99410.16;;;25.40;51.54
48027;BME280;50714;49.208;5.364;2022-08-19T17:50:18;99414.66;;;25.36;52.02
48027;BME280;50714;49.208;5.364;2022-08-19T18:00:20;99417.81;;;25.29;51.80
48027;BME280;50714;49.208;5.364;2022-08-19T18:10:23;99418.50;;;25.21;52.15
48027;BME280;50714;49.208;5.364;2022-08-19T18:20:24;99424.41;;;25.14;52.67
48027;BME280;50714;49.208;5.364;2022-08-19T18:30:26;99443.59;;;25.06;52.79
48027;BME280;50714;49.208;5.364;2022-08-19T18:40:28;99445.69;;;24.95;52.45
48027;BME280;50714;49.208;5.364;2022-08-19T18:50:47;99445.91;;;24.80;52.67
48027;BME280;50714;49.208;5.364;2022-08-19T19:00:48;99460.19;;;24.63;53.36
48027;BME280;50714;49.208;5.364;2022-08-19T19:10:48;99473.31;;;24.53;53.52
48027;BME280;50714;49.208;5.364;2022-08-19T19:20:49;99486.66;;;24.45;53.54
48027;BME280;50714;49.208;5.364;2022-08-19T19:30:51;99497.50;;;24.37;54.13
48027;BME280;50714;49.208;5.364;2022-08-19T19:40:52;99488.78;;;24.30;54.08
48027;BME280;50714;49.208;5.364;2022-08-19T19:50:52;99493.22;;;24.26;54.10
48027;BME280;50714;49.208;5.364;2022-08-19T20:00:54;99501.50;;;24.26;54.06
48027;BME280;50714;49.208;5.364;2022-08-19T20:10:55;99493.53;;;24.19;54.19
48027;BME280;50714;49.208;5.364;2022-08-19T20:20:59;99506.94;;;24.07;54.84
48027;BME280;50714;49.208;5.364;2022-08-19T20:30:59;99517.22;;;23.96;55.02
48027;BME280;50714;49.208;5.364;2022-08-19T20:41:01;99516.81;;;23.84;54.99
48027;BME280;50714;49.208;5.364;2022-08-19T20:51:01;99523.53;;;23.68;55.87
48027;BME280;50714;49.208;5.364;2022-08-19T21:01:02;99525.31;;;23.54;56.65
48027;BME280;50714;49.208;5.364;2022-08-19T21:11:04;99531.50;;;23.35;57.44
48027;BME280;50714;49.208;5.364;2022-08-19T21:21:05;99530.72;;;23.30;57.86
48027;BME280;50714;49.208;5.364;2022-08-19T21:31:06;99535.97;;;23.26;58.67
48027;BME280;50714;49.208;5.364;2022-08-19T21:41:09;99534.34;;;23.20;59.66
48027;BME280;50714;49.208;5.364;2022-08-19T21:51:09;99542.63;;;23.15;59.96
48027;BME280;50714;49.208;5.364;2022-08-19T22:01:10;99530.28;;;23.12;60.12
48027;BME280;50714;49.208;5.364;2022-08-19T22:11:10;99535.19;;;23.16;59.92
48027;BME280;50714;49.208;5.364;2022-08-19T22:21:11;99544.31;;;23.11;60.60
48027;BME280;50714;49.208;5.364;2022-08-19T22:31:12;99537.22;;;23.00;60.65
48027;BME280;50714;49.208;5.364;2022-08-19T22:41:12;99547.44;;;22.94;60.60
48027;BME280;50714;49.208;5.364;2022-08-19T22:51:15;99548.56;;;22.88;60.67
48027;BME280;50714;49.208;5.364;2022-08-19T23:01:34;99537.59;;;22.83;60.84
48027;BME280;50714;49.208;5.364;2022-08-19T23:11:37;99526.84;;;22.76;60.99
48027;BME280;50714;49.208;5.364;2022-08-19T23:21:40;99523.56;;;22.69;61.32
48027;BME280;50714;49.208;5.364;2022-08-19T23:31:40;99532.44;;;22.61;61.21
48027;BME280;50714;49.208;5.364;2022-08-19T23:41:41;99524.19;;;22.56;61.54
48027;BME280;50714;49.208;5.364;2022-08-19T23:51:41;99520.13;;;22.43;61.95
